Time;durP1;ratioP1;P1;durP2;ratioP2;P2;SDS_P1;SDS_P2;PMS_P1;PMS_P2;Temp;Humidity;BMP_temperature;BMP_pressure;BME280_temperature;BME280_humidity;BME280_pressure;Samples;Min_cycle;Max_cycle;Signal;HPM_P1;HPM_P2
2021/09/14 00:01:03;;;;;;;8.07;7.15;;;17.80;94.90;;;;;;5096518;28;20112;-58
2021/09/14 00:03:28;;;;;;;8.75;7.63;;;17.80;95.00;;;;;;5095835;28;20487;-56
2021/09/14 00:05:54;;;;;;;12.98;8.20;;;17.80;94.90;;;;;;5095878;28;20049;-56
2021/09/14 00:08:19;;;;;;;8.95;7.57;;;17.80;95.00;;;;;;5096338;28;20024;-51
2021/09/14 00:10:45;;;;;;;9.23;6.80;;;17.80;95.00;;;;;;5096396;28;20360;-53
2021/09/14 00:13:11;;;;;;;8.57;7.72;;;17.80;95.00;;;;;;5095828;28;20376;-50
2021/09/14 00:15:36;;;;;;;8.52;7.57;;;17.70;95.00;;;;;;5096010;28;20039;-49
2021/09/14 00:18:03;;;;;;;9.65;8.55;;;17.70;95.00;;;;;;5094824;28;20029;-50
2021/09/14 00:20:28;;;;;;;9.50;8.20;;;17.70;95.10;;;;;;5096162;28;20043;-48
2021/09/14 00:22:54;;;;;;;8.20;7.40;;;17.60;95.20;;;;;;5095856;28;20136;-50
2021/09/14 00:25:20;;;;;;;9.82;6.80;;;17.60;95.30;;;;;;5095975;28;20039;-52
2021/09/14 00:27:45;;;;;;;9.38;8.15;;;17.60;95.30;;;;;;5095776;28;20170;-53
2021/09/14 00:30:12;;;;;;;9.85;7.80;;;17.60;95.30;;;;;;5096027;28;20044;-50
2021/09/14 00:32:37;;;;;;;9.73;8.68;;;17.50;95.30;;;;;;5095663;28;20505;-49
2021/09/14 00:35:03;;;;;;;11.40;8.32;;;17.50;95.40;;;;;;5095483;28;20031;-49
2021/09/14 00:37:29;;;;;;;10.20;8.63;;;17.30;95.70;;;;;;5095951;28;20028;-48
2021/09/14 00:39:55;;;;;;;10.40;7.88;;;17.20;96.00;;;;;;5095650;28;20028;-48
2021/09/14 00:42:20;;;;;;;8.35;7.18;;;17.10;96.00;;;;;;5095513;28;20110;-52
2021/09/14 00:44:46;;;;;;;10.18;7.43;;;17.10;96.00;;;;;;5095771;28;20032;-54
2021/09/14 00:47:12;;;;;;;8.30;7.50;;;17.10;96.10;;;;;;5095171;28;20032;-50
2021/09/14 00:49:38;;;;;;;8.52;7.20;;;17.10;96.20;;;;;;5095792;28;20472;-53
2021/09/14 00:52:04;;;;;;;8.02;7.22;;;17.10;96.20;;;;;;5095697;28;20029;-49
2021/09/14 00:54:30;;;;;;;8.18;7.32;;;17.10;96.10;;;;;;5095324;28;20059;-48
2021/09/14 00:56:57;;;;;;;7.90;7.05;;;17.20;95.90;;;;;;5095455;28;20073;-51
2021/09/14 00:59:23;;;;;;;8.65;7.25;;;17.20;96.00;;;;;;5095801;28;20020;-50
2021/09/14 01:01:49;;;;;;;8.95;7.60;;;17.20;95.90;;;;;;5095554;28;20032;-50
2021/09/14 01:04:15;;;;;;;9.00;8.02;;;17.30;95.90;;;;;;5095344;28;20453;-53
2021/09/14 01:06:41;;;;;;;28.60;21.77;;;17.30;95.80;;;;;;5095360;28;20475;-56
2021/09/14 01:09:06;;;;;;;14.68;11.60;;;17.30;95.80;;;;;;5095641;28;20032;-54
2021/09/14 01:11:32;;;;;;;12.55;8.63;;;17.30;95.70;;;;;;5095162;28;20526;-52
2021/09/14 01:14:06;;;;;;;11.02;7.75;;;17.30;95.80;;;;;;5095107;28;20024;-50
2021/09/14 01:16:33;;;;;;;11.15;7.55;;;17.30;95.80;;;;;;5094871;28;20043;-50
2021/09/14 01:19:03;;;;;;;8.77;7.88;;;17.30;95.80;;;;;;5095574;28;20433;-53
2021/09/14 01:21:29;;;;;;;9.45;7.68;;;17.30;95.70;;;;;;5095044;28;20095;-52
2021/09/14 01:23:55;;;;;;;9.75;8.80;;;17.30;95.70;;;;;;5094710;28;20103;-50
2021/09/14 01:26:21;;;;;;;10.90;8.23;;;17.20;95.70;;;;;;5095039;28;20089;-51
2021/09/14 01:28:47;;;;;;;9.85;7.60;;;17.10;95.80;;;;;;5095165;28;20032;-53
2021/09/14 01:31:13;;;;;;;9.25;7.90;;;17.20;95.80;;;;;;5094440;28;20052;-54
2021/09/14 01:33:39;;;;;;;8.32;7.45;;;17.20;95.80;;;;;;5094803;28;20071;-52
2021/09/14 01:36:04;;;;;;;8.60;7.63;;;17.20;95.80;;;;;;5094752;28;20055;-52
2021/09/14 01:38:30;;;;;;;10.55;8.38;;;17.20;95.70;;;;;;5094668;28;20031;-48
2021/09/14 01:40:56;;;;;;;8.25;7.40;;;17.30;95.70;;;;;;5094767;28;20036;-52
2021/09/14 01:43:22;;;;;;;10.75;7.97;;;17.20;95.70;;;;;;5093912;28;20068;-48
2021/09/14 01:45:48;;;;;;;8.85;7.82;;;17.30;95.70;;;;;;5094149;28;20020;-49
2021/09/14 01:48:14;;;;;;;8.85;7.72;;;17.30;95.70;;;;;;5095075;28;20090;-52
2021/09/14 01:50:40;;;;;;;8.27;7.47;;;17.30;95.70;;;;;;5094766;28;20028;-51
2021/09/14 01:53:06;;;;;;;8.90;7.88;;;17.30;95.70;;;;;;5094338;28;20049;-48
2021/09/14 01:55:32;;;;;;;9.70;8.27;;;17.30;95.60;;;;;;5094711;28;20123;-53
2021/09/14 01:57:59;;;;;;;11.05;8.13;;;17.20;95.50;;;;;;5094210;28;20043;-50
2021/09/14 02:00:30;;;;;;;8.40;7.60;;;17.20;95.70;;;;;;5094159;28;20403;-50
2021/09/14 02:08:42;;;;;;;8.65;7.85;;;17.20;95.60;;;;;;5082572;28;20036;-52
2021/09/14 02:38:38;;;;;;;8.20;7.43;;;16.90;96.00;;;;;;5093560;28;20047;-49
2021/09/14 02:41:20;;;;;;;12.10;8.40;;;17.00;96.00;;;;;;5093614;28;20111;-49
2021/09/14 02:59:35;;;;;;;9.57;7.20;;;17.10;96.20;;;;;;5093263;28;20032;-50
2021/09/14 03:02:01;;;;;;;9.25;7.78;;;17.00;96.20;;;;;;5091869;28;20036;-52
2021/09/14 03:04:26;;;;;;;9.73;7.97;;;17.00;96.20;;;;;;5093119;28;20055;-52
2021/09/14 03:06:52;;;;;;;8.32;7.53;;;17.10;96.20;;;;;;5092917;28;20479;-52
2021/09/14 03:09:18;;;;;;;8.40;7.60;;;17.10;96.50;;;;;;5092689;28;20036;-51
2021/09/14 03:11:43;;;;;;;8.45;7.65;;;17.10;96.40;;;;;;5092726;28;20031;-52
2021/09/14 03:14:09;;;;;;;7.75;6.78;;;17.10;96.40;;;;;;5092926;28;20475;-51
2021/09/14 03:16:36;;;;;;;10.32;7.60;;;17.10;96.40;;;;;;5093188;28;20475;-49
2021/09/14 03:19:01;;;;;;;7.93;7.20;;;17.10;96.40;;;;;;5092478;28;20095;-53
2021/09/14 03:21:27;;;;;;;10.77;8.40;;;17.00;96.50;;;;;;5091835;28;20667;-48
2021/09/14 03:23:53;;;;;;;10.00;8.93;;;16.60;97.20;;;;;;5092562;28;20024;-49
2021/09/14 03:26:19;;;;;;;10.57;9.18;;;16.60;97.30;;;;;;5092088;28;20373;-49
2021/09/14 03:28:44;;;;;;;10.10;8.27;;;16.60;97.40;;;;;;5092401;28;20111;-53
2021/09/14 03:31:10;;;;;;;10.32;8.68;;;16.60;97.40;;;;;;5092412;28;20073;-49
2021/09/14 03:33:36;;;;;;;11.88;8.10;;;16.60;97.30;;;;;;5092289;28;20028;-53
2021/09/14 03:36:01;;;;;;;8.98;8.05;;;16.60;97.20;;;;;;5092419;28;20442;-54
2021/09/14 03:38:27;;;;;;;12.73;9.15;;;16.70;97.00;;;;;;5092742;28;20659;-53
2021/09/14 03:40:52;;;;;;;10.70;8.27;;;16.70;96.90;;;;;;5092939;28;20054;-53
2021/09/14 03:43:18;;;;;;;11.45;8.90;;;16.70;96.90;;;;;;5092502;28;20024;-55
2021/09/14 03:45:48;;;;;;;12.07;9.13;;;16.70;96.90;;;;;;5093380;28;20096;-50
2021/09/14 03:48:14;;;;;;;10.00;8.63;;;16.70;96.80;;;;;;5092688;28;20119;-51
2021/09/14 03:50:40;;;;;;;9.98;8.95;;;16.70;96.80;;;;;;5092574;28;20399;-50
2021/09/14 03:53:06;;;;;;;9.88;8.88;;;16.70;96.80;;;;;;5092047;28;20028;-53
2021/09/14 03:55:32;;;;;;;10.88;8.88;;;16.70;96.80;;;;;;5091239;28;20043;-53
2021/09/14 03:57:57;;;;;;;11.10;9.05;;;16.60;96.90;;;;;;5092415;28;20054;-51
2021/09/14 04:00:23;;;;;;;10.35;9.20;;;16.60;96.90;;;;;;5092435;28;20066;-52
2021/09/14 04:02:53;;;;;;;10.65;8.95;;;16.50;97.00;;;;;;5092173;28;20040;-53
2021/09/14 04:05:44;;;;;;;16.52;10.50;;;16.50;96.90;;;;;;5093169;28;20135;-56
2021/09/14 04:10:37;;;;;;;10.30;9.30;;;16.50;97.00;;;;;;5092597;28;20032;-58
2021/09/14 04:13:05;;;;;;;10.27;9.30;;;16.50;97.10;;;;;;5091776;28;20055;-54
2021/09/14 04:15:32;;;;;;;14.30;9.18;;;16.40;97.00;;;;;;5092179;28;20063;-57
2021/09/14 04:17:57;;;;;;;10.38;9.20;;;16.40;97.10;;;;;;5092469;28;20051;-55
2021/09/14 04:20:23;;;;;;;14.93;9.93;;;16.40;97.10;;;;;;5092353;28;20028;-56
2021/09/14 04:22:49;;;;;;;11.32;9.50;;;16.40;97.10;;;;;;5092056;28;20047;-52
2021/09/14 04:25:14;;;;;;;11.00;9.40;;;16.40;97.20;;;;;;5091783;28;20039;-54
2021/09/14 04:27:40;;;;;;;14.55;9.60;;;16.40;97.20;;;;;;5092651;28;20056;-53
2021/09/14 04:30:06;;;;;;;10.73;9.45;;;16.40;97.20;;;;;;5092684;28;20028;-57
2021/09/14 04:32:32;;;;;;;10.38;9.30;;;16.40;97.20;;;;;;5094827;28;20059;-52
2021/09/14 04:34:58;;;;;;;12.00;9.98;;;16.40;97.20;;;;;;5096053;28;20111;-48
2021/09/14 04:37:24;;;;;;;13.55;10.25;;;16.50;97.10;;;;;;5096237;28;20173;-51
2021/09/14 04:39:50;;;;;;;13.27;9.82;;;16.30;97.30;;;;;;5096156;28;20114;-50
2021/09/14 04:42:16;;;;;;;12.02;10.02;;;16.30;97.30;;;;;;5097182;28;20036;-50
2021/09/14 04:44:42;;;;;;;12.60;10.02;;;16.30;97.40;;;;;;5095659;28;20066;-48
2021/09/14 04:47:07;;;;;;;12.82;9.63;;;16.30;97.50;;;;;;5095186;28;20032;-48
2021/09/14 04:49:33;;;;;;;13.05;9.77;;;16.30;97.50;;;;;;5095538;28;20032;-50
2021/09/14 04:52:03;;;;;;;9.88;8.88;;;16.30;97.50;;;;;;5096036;28;20036;-50
2021/09/14 04:54:29;;;;;;;10.63;9.52;;;16.30;97.40;;;;;;5096202;28;20028;-54
2021/09/14 04:56:54;;;;;;;11.02;9.75;;;16.30;97.40;;;;;;5097056;28;20105;-54
2021/09/14 04:59:20;;;;;;;11.90;9.52;;;16.30;97.50;;;;;;5096712;28;20050;-55
2021/09/14 05:01:45;;;;;;;14.27;10.75;;;16.30;97.40;;;;;;5095823;28;20032;-54
2021/09/14 05:04:11;;;;;;;16.95;11.55;;;16.30;97.50;;;;;;5096062;28;20044;-49
2021/09/14 05:06:37;;;;;;;10.57;9.10;;;16.30;97.50;;;;;;5095079;28;20527;-54
2021/09/14 05:09:02;;;;;;;12.38;11.07;;;16.40;97.50;;;;;;5095824;28;20124;-55
2021/09/14 05:11:28;;;;;;;12.48;10.27;;;16.40;97.50;;;;;;5095863;28;20025;-52
2021/09/14 05:13:54;;;;;;;12.98;10.45;;;16.30;97.50;;;;;;5095318;28;20494;-51
2021/09/14 05:16:19;;;;;;;13.85;9.95;;;16.40;97.50;;;;;;5096407;28;20063;-54
2021/09/14 05:18:48;;;;;;;14.25;10.50;;;16.40;97.40;;;;;;5096064;28;20036;-52
2021/09/14 05:21:13;;;;;;;13.93;10.10;;;16.40;97.30;;;;;;5095624;28;20043;-49
2021/09/14 05:23:39;;;;;;;87.75;53.70;;;16.40;97.30;;;;;;5095051;28;20039;-55
2021/09/14 05:26:06;;;;;;;34.63;23.13;;;16.40;97.30;;;;;;5096442;28;20032;-52
2021/09/14 05:28:33;;;;;;;22.50;15.40;;;16.40;97.30;;;;;;5094713;28;20116;-50
2021/09/14 05:30:59;;;;;;;15.95;12.70;;;16.40;97.30;;;;;;5095101;28;20024;-52
2021/09/14 05:33:25;;;;;;;24.02;13.13;;;16.40;97.20;;;;;;5095586;28;20474;-54
2021/09/14 05:35:54;;;;;;;51.50;16.30;;;16.50;97.20;;;;;;5095159;28;20040;-48
2021/09/14 05:38:22;;;;;;;32.20;12.65;;;16.50;97.20;;;;;;5095438;28;20043;-53
2021/09/14 05:40:49;;;;;;;17.30;11.30;;;16.60;97.20;;;;;;5094911;28;20032;-50
2021/09/14 05:43:15;;;;;;;12.85;9.80;;;16.60;97.00;;;;;;5093385;28;20028;-51
2021/09/14 05:45:41;;;;;;;11.68;10.23;;;16.70;96.90;;;;;;5094946;28;20077;-51
2021/09/14 05:48:07;;;;;;;13.65;9.82;;;16.70;96.80;;;;;;5095633;28;20395;-51
2021/09/14 05:50:32;;;;;;;13.93;9.95;;;16.80;96.70;;;;;;5095819;28;20037;-50
2021/09/14 05:52:58;;;;;;;16.40;9.40;;;16.80;96.70;;;;;;5095274;28;20028;-53
2021/09/14 05:55:24;;;;;;;12.35;9.70;;;16.80;96.60;;;;;;5094761;28;20028;-52
2021/09/14 05:57:50;;;;;;;11.95;10.73;;;16.80;96.60;;;;;;5094295;28;20042;-54
2021/09/14 06:00:15;;;;;;;20.65;12.52;;;16.80;96.50;;;;;;5093603;28;20460;-48
2021/09/14 06:02:41;;;;;;;24.52;12.73;;;16.80;96.60;;;;;;5084698;28;20476;-50
2021/09/14 06:05:07;;;;;;;16.58;10.77;;;16.80;96.60;;;;;;5074099;28;20032;-51
2021/09/14 06:07:33;;;;;;;13.38;10.45;;;16.80;96.50;;;;;;5074235;28;20032;-51
2021/09/14 06:10:00;;;;;;;16.17;10.38;;;16.80;96.50;;;;;;5093896;28;20036;-52
2021/09/14 06:12:26;;;;;;;11.90;9.40;;;16.90;96.50;;;;;;5093864;28;20558;-48
2021/09/14 06:14:51;;;;;;;13.95;10.57;;;16.90;96.40;;;;;;5094767;28;20471;-49
2021/09/14 06:17:17;;;;;;;16.08;11.82;;;17.00;96.30;;;;;;5092507;28;20032;-53
2021/09/14 06:19:43;;;;;;;16.08;10.95;;;17.00;96.20;;;;;;5081203;28;20040;-51
2021/09/14 06:22:09;;;;;;;12.88;11.57;;;16.90;96.30;;;;;;5094782;28;20085;-52
2021/09/14 06:24:35;;;;;;;11.30;10.07;;;16.90;96.30;;;;;;5094199;28;20040;-53
2021/09/14 06:27:01;;;;;;;11.75;10.50;;;16.90;96.50;;;;;;5094118;28;20498;-54
2021/09/14 06:29:26;;;;;;;19.63;11.80;;;17.00;96.40;;;;;;5075488;28;20067;-52
2021/09/14 06:31:52;;;;;;;14.90;10.77;;;17.00;96.30;;;;;;5081400;28;20040;-48
2021/09/14 06:34:18;;;;;;;15.30;11.27;;;17.10;96.20;;;;;;5082723;28;20037;-51
2021/09/14 06:36:43;;;;;;;16.90;12.25;;;17.20;96.00;;;;;;5073846;28;20032;-50
2021/09/14 06:39:09;;;;;;;12.70;11.35;;;17.20;96.00;;;;;;5073081;28;20075;-49
2021/09/14 06:41:34;;;;;;;13.27;11.88;;;17.30;95.90;;;;;;5085645;28;20376;-54
2021/09/14 06:44:00;;;;;;;13.93;12.43;;;17.30;95.90;;;;;;5092946;28;20028;-48
2021/09/14 06:46:26;;;;;;;13.77;12.00;;;17.30;96.00;;;;;;5093648;28;20032;-50
2021/09/14 06:48:52;;;;;;;11.85;10.70;;;17.30;96.00;;;;;;5093676;28;20107;-46
2021/09/14 06:51:18;;;;;;;15.05;13.55;;;17.40;96.00;;;;;;5093477;28;20035;-49
2021/09/14 06:53:44;;;;;;;23.15;15.65;;;17.50;95.90;;;;;;5092900;28;20038;-48
2021/09/14 06:56:09;;;;;;;18.92;16.98;;;17.50;95.70;;;;;;5093190;28;20093;-53
2021/09/14 06:58:35;;;;;;;20.30;16.80;;;17.50;95.80;;;;;;5091449;28;20032;-46
2021/09/14 07:01:02;;;;;;;19.13;17.10;;;17.50;95.80;;;;;;5092510;28;20036;-49
2021/09/14 07:03:27;;;;;;;16.27;14.52;;;17.60;95.70;;;;;;5092155;28;20043;-53
2021/09/14 07:05:53;;;;;;;20.73;18.58;;;17.60;95.60;;;;;;5091777;28;20037;-50
2021/09/14 07:08:19;;;;;;;19.10;17.08;;;17.70;95.50;;;;;;5079883;28;20056;-46
2021/09/14 07:10:44;;;;;;;21.05;18.27;;;17.70;95.60;;;;;;5080017;28;20097;-46
2021/09/14 07:13:10;;;;;;;25.23;18.98;;;17.70;95.60;;;;;;5086651;28;20036;-49
2021/09/14 07:15:36;;;;;;;19.50;16.42;;;17.70;95.80;;;;;;5093348;28;20043;-50
2021/09/14 07:18:02;;;;;;;21.75;17.35;;;17.80;95.70;;;;;;5088765;28;20035;-51
2021/09/14 07:20:28;;;;;;;23.23;20.50;;;17.90;95.50;;;;;;5088209;28;20036;-55
2021/09/14 07:22:54;;;;;;;20.13;16.95;;;18.00;95.30;;;;;;5083841;28;20537;-49
2021/09/14 07:25:19;;;;;;;22.63;17.33;;;18.00;95.40;;;;;;5072291;28;20033;-49
2021/09/14 07:27:45;;;;;;;26.92;20.52;;;18.10;95.30;;;;;;5078396;28;20038;-50
2021/09/14 07:30:11;;;;;;;25.52;19.40;;;18.20;95.20;;;;;;5093371;28;20020;-48
2021/09/14 07:32:37;;;;;;;20.42;17.95;;;18.20;95.10;;;;;;5090369;28;20016;-52
2021/09/14 07:35:06;;;;;;;21.10;17.80;;;18.30;95.20;;;;;;5092862;28;20435;-50
2021/09/14 07:37:32;;;;;;;27.27;24.13;;;18.30;95.10;;;;;;5093431;28;20052;-47
2021/09/14 07:39:57;;;;;;;24.63;19.95;;;18.30;95.00;;;;;;5093060;28;20546;-49
2021/09/14 07:42:23;;;;;;;19.98;17.92;;;18.40;95.10;;;;;;5093061;28;20067;-47
2021/09/14 07:44:50;;;;;;;18.30;16.40;;;18.50;95.00;;;;;;5092767;28;20106;-55
2021/09/14 07:47:16;;;;;;;22.95;19.48;;;18.60;95.00;;;;;;5091216;28;20028;-51
2021/09/14 07:49:42;;;;;;;23.05;18.65;;;18.70;94.90;;;;;;5092944;28;20039;-47
2021/09/14 07:52:07;;;;;;;25.30;20.30;;;18.80;94.80;;;;;;5092362;28;20028;-49
2021/09/14 07:54:33;;;;;;;21.73;19.42;;;18.80;94.70;;;;;;5091488;28;20020;-50
2021/09/14 07:56:59;;;;;;;20.83;18.63;;;18.90;94.60;;;;;;5092784;28;20032;-48
2021/09/14 07:59:24;;;;;;;24.50;20.95;;;19.00;94.50;;;;;;5093271;28;20106;-50
2021/09/14 08:01:50;;;;;;;25.65;22.13;;;19.00;94.50;;;;;;5093446;28;20096;-48
2021/09/14 08:04:16;;;;;;;23.65;21.20;;;19.10;94.40;;;;;;5091351;28;20040;-49
2021/09/14 08:06:41;;;;;;;26.73;20.75;;;19.10;94.30;;;;;;5094831;28;20420;-49
2021/09/14 08:09:07;;;;;;;25.75;21.60;;;19.10;94.30;;;;;;5095723;28;20028;-53
2021/09/14 08:11:32;;;;;;;27.15;21.33;;;19.10;94.40;;;;;;5096829;28;20047;-47
2021/09/14 08:13:58;;;;;;;24.45;19.58;;;19.10;94.40;;;;;;5096896;28;20387;-49
2021/09/14 08:16:24;;;;;;;26.27;23.48;;;19.20;94.40;;;;;;5096583;28;20585;-53
2021/09/14 08:18:49;;;;;;;22.13;18.88;;;19.20;94.20;;;;;;5096679;28;20038;-55
2021/09/14 08:21:15;;;;;;;26.00;20.02;;;19.30;94.40;;;;;;5096059;28;20032;-47
2021/09/14 08:23:40;;;;;;;23.02;20.67;;;19.40;94.20;;;;;;5096161;28;20040;-47
2021/09/14 08:26:06;;;;;;;21.75;19.42;;;19.40;94.10;;;;;;5096551;28;20067;-48
2021/09/14 08:28:32;;;;;;;24.35;21.88;;;19.60;94.10;;;;;;5096310;28;20169;-53
2021/09/14 08:30:57;;;;;;;20.13;18.17;;;19.70;93.80;;;;;;5094840;28;20024;-45
2021/09/14 08:33:23;;;;;;;21.95;19.75;;;19.70;93.80;;;;;;5096598;28;20028;-48
2021/09/14 08:35:48;;;;;;;20.58;18.38;;;19.80;93.70;;;;;;5096529;28;20084;-49
2021/09/14 08:38:14;;;;;;;19.90;17.90;;;19.90;93.60;;;;;;5096427;28;20046;-49
2021/09/14 08:40:40;;;;;;;23.35;18.35;;;20.00;93.50;;;;;;5096606;28;20032;-47
2021/09/14 08:43:10;;;;;;;20.83;18.63;;;20.00;93.60;;;;;;5095931;28;20073;-51
2021/09/14 08:45:36;;;;;;;21.88;19.50;;;20.00;93.70;;;;;;5096261;28;20043;-54
2021/09/14 08:48:03;;;;;;;21.63;19.20;;;20.10;93.50;;;;;;5095605;28;20023;-53
2021/09/14 08:50:29;;;;;;;21.90;19.70;;;20.10;93.60;;;;;;5096229;28;20028;-49
2021/09/14 08:52:55;;;;;;;21.98;18.88;;;20.00;93.90;;;;;;5096028;28;20039;-48
2021/09/14 08:55:21;;;;;;;21.70;19.60;;;20.20;93.70;;;;;;5097062;28;20031;-52
2021/09/14 08:57:51;;;;;;;22.70;20.08;;;20.30;93.40;;;;;;5096143;28;20036;-50
2021/09/14 09:00:32;;;;;;;23.38;19.50;;;20.30;93.30;;;;;;5096046;28;20028;-47
2021/09/14 09:02:59;;;;;;;22.85;19.42;;;20.40;93.30;;;;;;5095184;28;20618;-47
2021/09/14 09:05:40;;;;;;;27.75;20.55;;;20.50;93.40;;;;;;5095577;28;20077;-54
2021/09/14 09:08:36;;;;;;;24.92;20.23;;;20.60;92.90;;;;;;5090340;28;20029;-48
2021/09/14 09:11:07;;;;;;;20.05;18.02;;;20.70;92.70;;;;;;5070102;28;20048;-52
2021/09/14 09:13:46;;;;;;;20.55;18.70;;;20.60;92.80;;;;;;5075339;28;20024;-51
2021/09/14 09:16:23;;;;;;;19.83;18.00;;;20.70;92.60;;;;;;5075710;28;20036;-51
2021/09/14 09:18:57;;;;;;;18.75;16.58;;;20.90;92.50;;;;;;5074529;28;20411;-53
2021/09/14 09:21:36;;;;;;;22.05;18.40;;;20.90;92.50;;;;;;5091771;28;20034;-48
2021/09/14 09:24:08;;;;;;;19.55;17.52;;;21.10;92.30;;;;;;5095771;28;20119;-48
2021/09/14 09:26:39;;;;;;;22.05;19.75;;;21.00;92.60;;;;;;5096156;28;20082;-49
2021/09/14 09:29:08;;;;;;;17.58;15.80;;;21.10;92.30;;;;;;5095447;28;20523;-53
2021/09/14 09:31:45;;;;;;;18.33;16.48;;;21.30;92.10;;;;;;5095839;28;20075;-49
2021/09/14 09:34:12;;;;;;;18.55;16.65;;;21.50;91.50;;;;;;5094780;28;20032;-53
2021/09/14 09:36:40;;;;;;;18.95;15.43;;;21.60;91.20;;;;;;5094961;28;20028;-49
2021/09/14 09:39:12;;;;;;;23.02;16.30;;;21.70;91.10;;;;;;5095578;28;20491;-51
2021/09/14 09:41:48;;;;;;;17.48;15.63;;;21.70;90.90;;;;;;5095104;28;20051;-49
2021/09/14 09:44:14;;;;;;;17.75;15.00;;;21.80;90.60;;;;;;5095592;28;20067;-49
2021/09/14 09:46:40;;;;;;;24.17;18.20;;;21.80;90.80;;;;;;5095075;28;20097;-50
2021/09/14 09:49:08;;;;;;;31.23;17.92;;;21.90;90.50;;;;;;5095079;28;20388;-52
2021/09/14 09:51:36;;;;;;;20.90;14.85;;;21.90;90.10;;;;;;5094523;28;20039;-61
2021/09/14 09:54:03;;;;;;;16.33;12.98;;;22.00;90.00;;;;;;5094715;28;20038;-51
2021/09/14 09:56:30;;;;;;;14.60;13.23;;;22.20;89.50;;;;;;5094780;28;20085;-49
2021/09/14 09:58:56;;;;;;;15.50;13.77;;;22.30;88.90;;;;;;5095803;28;20085;-53
2021/09/14 10:01:25;;;;;;;21.13;13.73;;;22.30;88.50;;;;;;5095886;28;20036;-54
2021/09/14 10:04:09;;;;;;;21.70;14.63;;;22.50;88.40;;;;;;5093709;28;20078;-55
2021/09/14 10:06:38;;;;;;;16.92;14.35;;;22.60;88.40;;;;;;5094235;28;20494;-54
2021/09/14 10:09:05;;;;;;;13.13;11.80;;;22.60;87.80;;;;;;5094549;28;20028;-54
2021/09/14 10:11:32;;;;;;;15.43;12.02;;;22.60;88.10;;;;;;5093962;28;20032;-56
2021/09/14 10:14:12;;;;;;;17.02;13.68;;;22.50;88.20;;;;;;5093741;28;20060;-53
2021/09/14 10:16:45;;;;;;;13.40;11.63;;;22.70;87.00;;;;;;5094384;28;20410;-54
2021/09/14 10:19:31;;;;;;;13.57;12.27;;;22.80;87.00;;;;;;5093920;28;20492;-54
2021/09/14 10:21:59;;;;;;;15.07;13.50;;;22.90;86.10;;;;;;5073544;28;20040;-55
2021/09/14 10:24:26;;;;;;;16.33;12.80;;;22.90;87.00;;;;;;5072662;28;20403;-57
2021/09/14 10:27:08;;;;;;;18.85;13.07;;;22.90;86.80;;;;;;5073992;28;20036;-54
2021/09/14 10:29:35;;;;;;;38.10;14.93;;;23.00;85.80;;;;;;5073711;28;20074;-56
2021/09/14 10:32:12;;;;;;;22.45;11.98;;;23.10;85.50;;;;;;5074541;28;20071;-54
2021/09/14 10:34:42;;;;;;;15.90;12.45;;;23.10;84.90;;;;;;5073792;28;20103;-56
2021/09/14 10:37:10;;;;;;;18.02;11.95;;;23.20;84.30;;;;;;5074141;28;20036;-57
2021/09/14 10:39:44;;;;;;;15.07;11.60;;;23.30;84.70;;;;;;5074301;28;20064;-54
2021/09/14 10:42:21;;;;;;;17.83;11.82;;;23.50;84.00;;;;;;5073463;28;20396;-56
2021/09/14 10:44:49;;;;;;;13.77;11.32;;;23.60;84.20;;;;;;5073342;28;20094;-54
2021/09/14 10:47:20;;;;;;;11.55;10.50;;;23.50;83.80;;;;;;5074118;28;20088;-52
2021/09/14 10:49:57;;;;;;;12.20;10.35;;;23.60;83.70;;;;;;5074073;28;20480;-57
2021/09/14 10:52:33;;;;;;;11.63;10.23;;;23.60;83.40;;;;;;5073623;28;20031;-56
2021/09/14 10:55:05;;;;;;;13.63;11.38;;;23.70;83.70;;;;;;5073114;28;20021;-53
2021/09/14 10:57:51;;;;;;;14.98;12.32;;;23.70;83.60;;;;;;5073474;28;20510;-54
2021/09/14 11:00:31;;;;;;;13.50;12.25;;;23.50;83.40;;;;;;5073630;28;20480;-57
2021/09/14 11:03:06;;;;;;;12.98;11.68;;;23.50;83.80;;;;;;5072591;28;20491;-54
2021/09/14 11:05:36;;;;;;;14.57;12.55;;;23.50;83.30;;;;;;5072730;28;20040;-55
2021/09/14 11:08:09;;;;;;;12.27;11.07;;;23.30;82.70;;;;;;5072935;28;20036;-54
2021/09/14 11:10:43;;;;;;;14.13;11.85;;;23.30;83.40;;;;;;5072654;28;20052;-54
2021/09/14 11:13:18;;;;;;;11.90;10.80;;;23.40;83.70;;;;;;5072267;28;20035;-54
2021/09/14 11:15:44;;;;;;;31.33;14.15;;;23.50;83.70;;;;;;5072846;28;20115;-52
2021/09/14 11:18:09;;;;;;;19.08;10.10;;;23.70;83.50;;;;;;5072735;28;20568;-55
2021/09/14 11:20:36;;;;;;;19.35;10.43;;;23.70;82.70;;;;;;5082452;28;20024;-58
2021/09/14 11:23:03;;;;;;;10.77;9.73;;;23.90;82.70;;;;;;5092353;28;20480;-54
2021/09/14 11:25:29;;;;;;;14.27;11.18;;;24.00;82.80;;;;;;5092815;28;20399;-55
2021/09/14 11:28:01;;;;;;;10.88;9.68;;;24.10;82.60;;;;;;5093056;28;20098;-57
2021/09/14 11:30:30;;;;;;;10.23;9.23;;;24.20;82.60;;;;;;5093702;28;20030;-57
2021/09/14 11:32:56;;;;;;;11.13;9.20;;;24.30;82.80;;;;;;5091781;28;20039;-54
2021/09/14 11:35:22;;;;;;;11.75;10.60;;;24.30;82.60;;;;;;5092684;28;20024;-51
2021/09/14 11:38:03;;;;;;;11.32;10.18;;;24.40;82.10;;;;;;5090849;28;20051;-51
2021/09/14 11:40:29;;;;;;;11.75;10.30;;;24.40;82.40;;;;;;5091324;28;20028;-54
2021/09/14 11:43:00;;;;;;;9.95;8.88;;;24.40;80.50;;;;;;5091933;28;20030;-57
2021/09/14 11:45:28;;;;;;;12.15;10.73;;;24.30;81.00;;;;;;5092532;28;20032;-55
2021/09/14 11:47:55;;;;;;;12.38;10.00;;;24.20;81.30;;;;;;5092940;28;20032;-54
2021/09/14 11:50:34;;;;;;;11.35;9.50;;;24.10;81.20;;;;;;5092299;28;20024;-52
2021/09/14 11:53:05;;;;;;;10.48;8.73;;;24.10;81.20;;;;;;5092381;28;20051;-54
2021/09/14 11:55:31;;;;;;;10.55;8.60;;;24.20;80.80;;;;;;5093324;28;20040;-55
2021/09/14 11:57:59;;;;;;;11.70;7.95;;;24.30;80.50;;;;;;5092629;28;20428;-55
2021/09/14 12:00:45;;;;;;;13.88;9.18;;;24.50;80.50;;;;;;5092755;28;20035;-56
2021/09/14 12:03:17;;;;;;;9.70;8.70;;;24.60;80.50;;;;;;5092815;28;20044;-55
2021/09/14 12:05:56;;;;;;;9.63;8.38;;;24.60;80.40;;;;;;5092044;28;20452;-57
2021/09/14 12:08:33;;;;;;;11.95;8.57;;;24.70;79.50;;;;;;5090843;28;20016;-53
2021/09/14 12:11:01;;;;;;;11.90;8.57;;;24.60;79.40;;;;;;5093002;28;20074;-53
2021/09/14 12:13:27;;;;;;;10.98;8.43;;;24.50;78.80;;;;;;5090416;28;20448;-55
2021/09/14 12:16:12;;;;;;;9.98;8.77;;;24.60;79.30;;;;;;5092775;28;20039;-54
2021/09/14 12:18:40;;;;;;;11.80;9.02;;;24.80;79.40;;;;;;5092142;28;20047;-55
2021/09/14 12:21:06;;;;;;;9.48;8.57;;;24.90;79.20;;;;;;5091978;28;20124;-53
2021/09/14 12:23:32;;;;;;;10.80;9.70;;;25.00;78.70;;;;;;5091456;28;20127;-52
2021/09/14 12:25:58;;;;;;;13.80;10.98;;;25.00;78.30;;;;;;5091854;28;20035;-51
2021/09/14 12:28:23;;;;;;;9.82;8.82;;;25.10;78.10;;;;;;5091999;28;20497;-54
2021/09/14 12:30:49;;;;;;;9.40;8.60;;;25.10;78.00;;;;;;5092111;28;20020;-52
2021/09/14 12:33:16;;;;;;;10.32;7.78;;;25.20;77.90;;;;;;5092049;28;20036;-55
2021/09/14 12:35:42;;;;;;;10.95;7.95;;;25.20;77.10;;;;;;5091417;28;20545;-56
2021/09/14 12:38:08;;;;;;;8.90;7.72;;;25.30;77.00;;;;;;5091998;28;20039;-54
2021/09/14 12:40:33;;;;;;;12.35;8.30;;;25.50;76.90;;;;;;5092008;28;20028;-54
2021/09/14 12:42:59;;;;;;;8.80;7.28;;;25.70;76.70;;;;;;5092577;28;20034;-54
2021/09/14 12:45:25;;;;;;;10.15;7.57;;;25.90;76.80;;;;;;5091662;28;20040;-55
2021/09/14 12:47:50;;;;;;;12.00;7.95;;;26.00;76.70;;;;;;5094789;28;20036;-53
2021/09/14 12:50:16;;;;;;;7.53;6.90;;;26.10;76.10;;;;;;5090202;28;20085;-54
2021/09/14 12:52:42;;;;;;;13.48;8.73;;;26.10;76.20;;;;;;5084963;28;20021;-51
2021/09/14 12:55:08;;;;;;;9.52;7.35;;;26.20;76.00;;;;;;5075412;28;20044;-51
2021/09/14 12:57:34;;;;;;;7.43;6.72;;;26.30;75.70;;;;;;5075323;28;20119;-54
2021/09/14 13:00:00;;;;;;;10.07;7.28;;;26.40;75.20;;;;;;5087365;28;20128;-56
2021/09/14 13:02:26;;;;;;;9.43;7.50;;;26.50;74.70;;;;;;5095283;28;20135;-53
2021/09/14 13:04:51;;;;;;;8.48;7.68;;;26.40;74.70;;;;;;5094508;28;20369;-55
2021/09/14 13:07:17;;;;;;;7.95;7.18;;;26.40;74.80;;;;;;5095728;28;20039;-53
2021/09/14 13:09:43;;;;;;;11.90;7.75;;;26.50;74.80;;;;;;5076281;28;20037;-54
2021/09/14 13:12:10;;;;;;;14.05;9.07;;;26.50;74.40;;;;;;5075877;28;20048;-54
2021/09/14 13:17:20;;;;;;;18.67;10.93;;;26.60;75.20;;;;;;5075028;28;20036;-53
2021/09/14 13:19:45;;;;;;;9.52;8.57;;;26.90;75.20;;;;;;5077680;28;20035;-53
2021/09/14 13:22:11;;;;;;;8.60;7.80;;;27.10;74.10;;;;;;5094879;28;20166;-53
2021/09/14 13:24:36;;;;;;;9.20;8.27;;;27.10;73.60;;;;;;5095744;28;20481;-53
2021/09/14 13:27:02;;;;;;;9.55;7.50;;;27.10;73.60;;;;;;5094920;28;20435;-56
2021/09/14 13:29:28;;;;;;;15.13;10.40;;;27.20;73.70;;;;;;5096028;28;20055;-51